sensor_id;sensor_type;location;lat;lon;timestamp;P1;durP1;ratioP1;P2;durP2;ratioP2
5499;SDS011;2772;42.700;23.304;2022-12-01T00:00:38;1.63;;;1.53;;
5499;SDS011;2772;42.700;23.304;2022-12-01T00:03:05;0.93;;;0.93;;
5499;SDS011;2772;42.700;23.304;2022-12-01T00:05:33;1.20;;;1.10;;
5499;SDS011;2772;42.700;23.304;2022-12-01T00:08:00;0.97;;;0.87;;
5499;SDS011;2772;42.700;23.304;2022-12-01T00:10:28;0.83;;;0.80;;
5499;SDS011;2772;42.700;23.304;2022-12-01T00:12:54;1.63;;;1.53;;
5499;SDS011;2772;42.700;23.304;2022-12-01T00:15:24;1.33;;;1.20;;
5499;SDS011;2772;42.700;23.304;2022-12-01T00:17:52;1.10;;;1.00;;
5499;SDS011;2772;42.700;23.304;2022-12-01T00:20:19;7.33;;;1.80;;
5499;SDS011;2772;42.700;23.304;2022-12-01T00:22:46;1.27;;;1.13;;
5499;SDS011;2772;42.700;23.304;2022-12-01T00:25:15;1.70;;;1.30;;
5499;SDS011;2772;42.700;23.304;2022-12-01T00:27:47;0.93;;;0.83;;
5499;SDS011;2772;42.700;23.304;2022-12-01T00:30:15;1.30;;;1.20;;
5499;SDS011;2772;42.700;23.304;2022-12-01T00:32:42;1.37;;;0.80;;
5499;SDS011;2772;42.700;23.304;2022-12-01T00:35:09;1.60;;;1.50;;
5499;SDS011;2772;42.700;23.304;2022-12-01T00:37:36;1.17;;;1.00;;
5499;SDS011;2772;42.700;23.304;2022-12-01T00:40:03;0.80;;;0.60;;
5499;SDS011;2772;42.700;23.304;2022-12-01T00:42:32;1.00;;;0.83;;
5499;SDS011;2772;42.700;23.304;2022-12-01T00:45:00;1.33;;;0.50;;
5499;SDS011;2772;42.700;23.304;2022-12-01T00:47:28;1.10;;;1.00;;
5499;SDS011;2772;42.700;23.304;2022-12-01T00:49:55;1.77;;;1.20;;
5499;SDS011;2772;42.700;23.304;2022-12-01T00:52:21;1.00;;;0.80;;
5499;SDS011;2772;42.700;23.304;2022-12-01T00:54:48;1.13;;;1.03;;
5499;SDS011;2772;42.700;23.304;2022-12-01T00:57:15;0.80;;;0.77;;
5499;SDS011;2772;42.700;23.304;2022-12-01T00:59:41;1.37;;;0.97;;
5499;SDS011;2772;42.700;23.304;2022-12-01T01:02:09;2.07;;;1.50;;
5499;SDS011;2772;42.700;23.304;2022-12-01T01:04:36;1.70;;;1.60;;
5499;SDS011;2772;42.700;23.304;2022-12-01T01:07:03;2.20;;;1.57;;
5499;SDS011;2772;42.700;23.304;2022-12-01T01:09:30;2.30;;;2.20;;
5499;SDS011;2772;42.700;23.304;2022-12-01T01:11:57;1.47;;;1.37;;
5499;SDS011;2772;42.700;23.304;2022-12-01T01:14:24;1.93;;;1.40;;
5499;SDS011;2772;42.700;23.304;2022-12-01T01:16:51;1.97;;;1.87;;
5499;SDS011;2772;42.700;23.304;2022-12-01T01:19:19;2.07;;;1.20;;
5499;SDS011;2772;42.700;23.304;2022-12-01T01:21:46;2.70;;;2.50;;
5499;SDS011;2772;42.700;23.304;2022-12-01T01:24:12;1.57;;;1.17;;
5499;SDS011;2772;42.700;23.304;2022-12-01T01:26:39;2.20;;;1.50;;
5499;SDS011;2772;42.700;23.304;2022-12-01T01:29:06;1.40;;;1.30;;
5499;SDS011;2772;42.700;23.304;2022-12-01T01:31:33;2.03;;;1.17;;
5499;SDS011;2772;42.700;23.304;2022-12-01T01:34:00;1.20;;;1.10;;
5499;SDS011;2772;42.700;23.304;2022-12-01T01:36:29;1.77;;;1.30;;
5499;SDS011;2772;42.700;23.304;2022-12-01T01:38:56;1.37;;;1.10;;
5499;SDS011;2772;42.700;23.304;2022-12-01T01:41:22;2.40;;;1.17;;
5499;SDS011;2772;42.700;23.304;2022-12-01T01:43:50;1.27;;;1.17;;
5499;SDS011;2772;42.700;23.304;2022-12-01T01:46:20;1.00;;;0.80;;
5499;SDS011;2772;42.700;23.304;2022-12-01T01:48:49;1.90;;;1.57;;
5499;SDS011;2772;42.700;23.304;2022-12-01T01:51:20;2.80;;;2.60;;
5499;SDS011;2772;42.700;23.304;2022-12-01T01:53:51;1.70;;;1.60;;
5499;SDS011;2772;42.700;23.304;2022-12-01T01:56:21;2.60;;;2.40;;
5499;SDS011;2772;42.700;23.304;2022-12-01T01:58:49;1.73;;;1.63;;
5499;SDS011;2772;42.700;23.304;2022-12-01T02:01:17;2.00;;;1.90;;
5499;SDS011;2772;42.700;23.304;2022-12-01T02:03:44;1.80;;;1.70;;
5499;SDS011;2772;42.700;23.304;2022-12-01T02:06:12;1.30;;;1.10;;
5499;SDS011;2772;42.700;23.304;2022-12-01T02:08:39;3.30;;;1.03;;
5499;SDS011;2772;42.700;23.304;2022-12-01T02:11:24;1.50;;;1.40;;
5499;SDS011;2772;42.700;23.304;2022-12-01T02:17:07;1.70;;;1.60;;
5499;SDS011;2772;42.700;23.304;2022-12-01T02:19:46;1.80;;;1.70;;
5499;SDS011;2772;42.700;23.304;2022-12-01T02:22:35;1.67;;;1.40;;
5499;SDS011;2772;42.700;23.304;2022-12-01T02:25:20;1.40;;;1.30;;
5499;SDS011;2772;42.700;23.304;2022-12-01T02:28:06;1.40;;;0.80;;
5499;SDS011;2772;42.700;23.304;2022-12-01T02:30:44;1.27;;;1.17;;
5499;SDS011;2772;42.700;23.304;2022-12-01T02:33:15;1.80;;;1.30;;
5499;SDS011;2772;42.700;23.304;2022-12-01T02:35:46;9.60;;;5.00;;
5499;SDS011;2772;42.700;23.304;2022-12-01T02:38:20;20.60;;;8.60;;
5499;SDS011;2772;42.700;23.304;2022-12-01T02:40:55;22.83;;;10.30;;
5499;SDS011;2772;42.700;23.304;2022-12-01T02:43:28;8.37;;;5.63;;
5499;SDS011;2772;42.700;23.304;2022-12-01T02:46:01;4.97;;;3.83;;
5499;SDS011;2772;42.700;23.304;2022-12-01T02:48:35;2.00;;;1.80;;
5499;SDS011;2772;42.700;23.304;2022-12-01T02:51:06;1.47;;;1.37;;
5499;SDS011;2772;42.700;23.304;2022-12-01T02:53:36;2.17;;;1.30;;
5499;SDS011;2772;42.700;23.304;2022-12-01T02:56:04;1.00;;;0.90;;
5499;SDS011;2772;42.700;23.304;2022-12-01T02:58:34;1.20;;;1.00;;
5499;SDS011;2772;42.700;23.304;2022-12-01T03:01:09;1.10;;;1.00;;
5499;SDS011;2772;42.700;23.304;2022-12-01T03:03:54;1.17;;;1.00;;
5499;SDS011;2772;42.700;23.304;2022-12-01T03:06:30;1.40;;;0.90;;
5499;SDS011;2772;42.700;23.304;2022-12-01T03:09:07;1.00;;;0.90;;
5499;SDS011;2772;42.700;23.304;2022-12-01T03:11:43;0.80;;;0.80;;
5499;SDS011;2772;42.700;23.304;2022-12-01T03:14:27;0.90;;;0.70;;
5499;SDS011;2772;42.700;23.304;2022-12-01T03:17:05;1.20;;;1.10;;
5499;SDS011;2772;42.700;23.304;2022-12-01T03:19:34;1.33;;;1.23;;
5499;SDS011;2772;42.700;23.304;2022-12-01T03:22:07;1.47;;;1.37;;
5499;SDS011;2772;42.700;23.304;2022-12-01T03:24:38;2.20;;;2.00;;
5499;SDS011;2772;42.700;23.304;2022-12-01T03:27:08;1.67;;;1.30;;
5499;SDS011;2772;42.700;23.304;2022-12-01T03:29:38;1.30;;;1.20;;
5499;SDS011;2772;42.700;23.304;2022-12-01T03:32:10;1.43;;;1.30;;
5499;SDS011;2772;42.700;23.304;2022-12-01T03:34:41;1.13;;;1.03;;
5499;SDS011;2772;42.700;23.304;2022-12-01T03:37:14;1.20;;;1.10;;
5499;SDS011;2772;42.700;23.304;2022-12-01T03:39:46;3.67;;;1.10;;
5499;SDS011;2772;42.700;23.304;2022-12-01T03:42:14;1.40;;;1.30;;
5499;SDS011;2772;42.700;23.304;2022-12-01T03:44:46;1.80;;;1.53;;
5499;SDS011;2772;42.700;23.304;2022-12-01T03:47:19;1.30;;;1.20;;
5499;SDS011;2772;42.700;23.304;2022-12-01T03:49:49;1.30;;;1.20;;
5499;SDS011;2772;42.700;23.304;2022-12-01T03:52:18;1.27;;;1.17;;
5499;SDS011;2772;42.700;23.304;2022-12-01T03:54:58;1.30;;;1.20;;
5499;SDS011;2772;42.700;23.304;2022-12-01T03:57:32;2.00;;;1.27;;
5499;SDS011;2772;42.700;23.304;2022-12-01T04:00:04;1.30;;;1.20;;
5499;SDS011;2772;42.700;23.304;2022-12-01T04:02:33;1.27;;;1.17;;
5499;SDS011;2772;42.700;23.304;2022-12-01T04:05:02;1.47;;;1.37;;
5499;SDS011;2772;42.700;23.304;2022-12-01T04:07:29;1.20;;;1.10;;
5499;SDS011;2772;42.700;23.304;2022-12-01T04:09:56;1.43;;;1.20;;
5499;SDS011;2772;42.700;23.304;2022-12-01T04:12:23;1.17;;;1.00;;
5499;SDS011;2772;42.700;23.304;2022-12-01T04:14:57;2.27;;;1.27;;
5499;SDS011;2772;42.700;23.304;2022-12-01T04:17:24;1.80;;;1.27;;
5499;SDS011;2772;42.700;23.304;2022-12-01T04:19:53;1.40;;;1.30;;
5499;SDS011;2772;42.700;23.304;2022-12-01T04:22:20;1.10;;;1.00;;
5499;SDS011;2772;42.700;23.304;2022-12-01T04:24:47;5.00;;;1.20;;
5499;SDS011;2772;42.700;23.304;2022-12-01T04:27:13;1.53;;;1.40;;
5499;SDS011;2772;42.700;23.304;2022-12-01T04:29:40;1.70;;;1.60;;
5499;SDS011;2772;42.700;23.304;2022-12-01T04:32:08;1.83;;;1.73;;
5499;SDS011;2772;42.700;23.304;2022-12-01T04:34:37;2.70;;;1.20;;
5499;SDS011;2772;42.700;23.304;2022-12-01T04:37:06;1.30;;;1.20;;
5499;SDS011;2772;42.700;23.304;2022-12-01T04:39:34;1.60;;;1.50;;
5499;SDS011;2772;42.700;23.304;2022-12-01T04:42:01;1.70;;;1.60;;
5499;SDS011;2772;42.700;23.304;2022-12-01T04:44:29;1.40;;;1.30;;
5499;SDS011;2772;42.700;23.304;2022-12-01T04:46:56;1.50;;;1.40;;
5499;SDS011;2772;42.700;23.304;2022-12-01T04:49:24;1.47;;;1.37;;
5499;SDS011;2772;42.700;23.304;2022-12-01T04:51:51;1.40;;;1.30;;
5499;SDS011;2772;42.700;23.304;2022-12-01T04:54:19;1.50;;;1.40;;
5499;SDS011;2772;42.700;23.304;2022-12-01T04:56:46;1.90;;;1.10;;
5499;SDS011;2772;42.700;23.304;2022-12-01T04:59:13;1.30;;;1.20;;
5499;SDS011;2772;42.700;23.304;2022-12-01T05:01:40;1.37;;;1.27;;
5499;SDS011;2772;42.700;23.304;2022-12-01T05:04:09;1.30;;;1.20;;
5499;SDS011;2772;42.700;23.304;2022-12-01T05:06:37;1.40;;;1.30;;
5499;SDS011;2772;42.700;23.304;2022-12-01T05:09:04;2.00;;;1.90;;
5499;SDS011;2772;42.700;23.304;2022-12-01T05:11:33;3.67;;;1.70;;
5499;SDS011;2772;42.700;23.304;2022-12-01T05:14:01;2.07;;;1.93;;
5499;SDS011;2772;42.700;23.304;2022-12-01T05:16:31;2.50;;;2.40;;
5499;SDS011;2772;42.700;23.304;2022-12-01T05:19:01;2.30;;;2.10;;
5499;SDS011;2772;42.700;23.304;2022-12-01T05:21:46;2.90;;;2.10;;
5499;SDS011;2772;42.700;23.304;2022-12-01T05:24:14;3.23;;;2.60;;
5499;SDS011;2772;42.700;23.304;2022-12-01T05:26:44;2.10;;;2.00;;
5499;SDS011;2772;42.700;23.304;2022-12-01T05:29:10;2.60;;;2.50;;
5499;SDS011;2772;42.700;23.304;2022-12-01T05:31:38;2.23;;;2.00;;
5499;SDS011;2772;42.700;23.304;2022-12-01T05:34:05;2.57;;;2.37;;
5499;SDS011;2772;42.700;23.304;2022-12-01T05:36:32;3.70;;;2.70;;
5499;SDS011;2772;42.700;23.304;2022-12-01T05:38:59;2.90;;;2.70;;
5499;SDS011;2772;42.700;23.304;2022-12-01T05:41:25;2.90;;;2.40;;
5499;SDS011;2772;42.700;23.304;2022-12-01T05:43:53;2.63;;;2.50;;
5499;SDS011;2772;42.700;23.304;2022-12-01T05:46:20;5.53;;;5.03;;
5499;SDS011;2772;42.700;23.304;2022-12-01T05:48:47;2.50;;;2.40;;
5499;SDS011;2772;42.700;23.304;2022-12-01T05:51:14;5.03;;;3.20;;
5499;SDS011;2772;42.700;23.304;2022-12-01T05:53:42;3.70;;;2.90;;
5499;SDS011;2772;42.700;23.304;2022-12-01T05:56:09;4.93;;;3.40;;
5499;SDS011;2772;42.700;23.304;2022-12-01T05:58:39;2.10;;;2.00;;
5499;SDS011;2772;42.700;23.304;2022-12-01T06:01:08;2.40;;;2.10;;
5499;SDS011;2772;42.700;23.304;2022-12-01T06:03:34;1.70;;;1.60;;
5499;SDS011;2772;42.700;23.304;2022-12-01T06:06:02;1.70;;;1.60;;
5499;SDS011;2772;42.700;23.304;2022-12-01T06:08:30;2.73;;;1.50;;
5499;SDS011;2772;42.700;23.304;2022-12-01T06:10:57;1.00;;;0.90;;
5499;SDS011;2772;42.700;23.304;2022-12-01T06:13:24;1.67;;;1.57;;
5499;SDS011;2772;42.700;23.304;2022-12-01T06:15:54;1.20;;;1.10;;
5499;SDS011;2772;42.700;23.304;2022-12-01T06:18:24;1.47;;;1.37;;
5499;SDS011;2772;42.700;23.304;2022-12-01T06:20:51;1.23;;;1.13;;
5499;SDS011;2772;42.700;23.304;2022-12-01T06:23:18;1.87;;;1.70;;
5499;SDS011;2772;42.700;23.304;2022-12-01T06:25:45;2.23;;;2.07;;
5499;SDS011;2772;42.700;23.304;2022-12-01T06:28:12;3.22;;;2.40;;
5499;SDS011;2772;42.700;23.304;2022-12-01T06:30:39;5.13;;;3.60;;
5499;SDS011;2772;42.700;23.304;2022-12-01T06:33:05;2.87;;;2.60;;
5499;SDS011;2772;42.700;23.304;2022-12-01T06:35:34;2.20;;;2.10;;
5499;SDS011;2772;42.700;23.304;2022-12-01T06:38:01;3.60;;;2.80;;
5499;SDS011;2772;42.700;23.304;2022-12-01T06:40:27;2.77;;;2.57;;
5499;SDS011;2772;42.700;23.304;2022-12-01T06:42:57;3.90;;;3.60;;
5499;SDS011;2772;42.700;23.304;2022-12-01T06:45:26;4.23;;;3.70;;
5499;SDS011;2772;42.700;23.304;2022-12-01T06:47:52;8.53;;;3.30;;
5499;SDS011;2772;42.700;23.304;2022-12-01T06:50:20;3.87;;;3.50;;
5499;SDS011;2772;42.700;23.304;2022-12-01T06:52:53;6.40;;;3.23;;
5499;SDS011;2772;42.700;23.304;2022-12-01T06:55:20;5.20;;;3.90;;
5499;SDS011;2772;42.700;23.304;2022-12-01T06:57:47;9.47;;;4.20;;
5499;SDS011;2772;42.700;23.304;2022-12-01T07:00:14;10.00;;;3.40;;
5499;SDS011;2772;42.700;23.304;2022-12-01T07:02:41;6.40;;;3.60;;
5499;SDS011;2772;42.700;23.304;2022-12-01T07:05:08;6.40;;;3.87;;
5499;SDS011;2772;42.700;23.304;2022-12-01T07:07:35;4.10;;;3.20;;
5499;SDS011;2772;42.700;23.304;2022-12-01T07:10:04;5.67;;;4.90;;
5499;SDS011;2772;42.700;23.304;2022-12-01T07:12:32;7.20;;;3.60;;
5499;SDS011;2772;42.700;23.304;2022-12-01T07:14:59;6.60;;;3.23;;
5499;SDS011;2772;42.700;23.304;2022-12-01T07:17:27;4.20;;;3.73;;
5499;SDS011;2772;42.700;23.304;2022-12-01T07:19:53;4.23;;;3.80;;
5499;SDS011;2772;42.700;23.304;2022-12-01T07:22:20;6.10;;;3.70;;
5499;SDS011;2772;42.700;23.304;2022-12-01T07:24:47;8.57;;;4.23;;
5499;SDS011;2772;42.700;23.304;2022-12-01T07:27:15;4.00;;;3.63;;
5499;SDS011;2772;42.700;23.304;2022-12-01T07:29:42;6.43;;;4.10;;
5499;SDS011;2772;42.700;23.304;2022-12-01T07:32:09;5.40;;;3.77;;
5499;SDS011;2772;42.700;23.304;2022-12-01T07:34:36;9.23;;;4.07;;
5499;SDS011;2772;42.700;23.304;2022-12-01T07:37:02;10.47;;;5.23;;
5499;SDS011;2772;42.700;23.304;2022-12-01T07:39:29;11.97;;;5.33;;
5499;SDS011;2772;42.700;23.304;2022-12-01T07:41:56;5.73;;;4.80;;
5499;SDS011;2772;42.700;23.304;2022-12-01T07:44:24;6.43;;;4.53;;
5499;SDS011;2772;42.700;23.304;2022-12-01T07:46:50;7.50;;;4.70;;
5499;SDS011;2772;42.700;23.304;2022-12-01T07:49:17;4.40;;;4.00;;
5499;SDS011;2772;42.700;23.304;2022-12-01T07:51:44;5.33;;;4.10;;
5499;SDS011;2772;42.700;23.304;2022-12-01T07:54:11;4.53;;;4.13;;
5499;SDS011;2772;42.700;23.304;2022-12-01T07:56:39;4.70;;;3.90;;
5499;SDS011;2772;42.700;23.304;2022-12-01T07:59:06;4.37;;;3.70;;
5499;SDS011;2772;42.700;23.304;2022-12-01T08:01:34;5.80;;;3.60;;
5499;SDS011;2772;42.700;23.304;2022-12-01T08:04:02;6.90;;;4.20;;
5499;SDS011;2772;42.700;23.304;2022-12-01T08:06:30;6.90;;;4.23;;
5499;SDS011;2772;42.700;23.304;2022-12-01T08:08:57;4.30;;;3.90;;
5499;SDS011;2772;42.700;23.304;2022-12-01T08:11:24;3.50;;;3.30;;
5499;SDS011;2772;42.700;23.304;2022-12-01T08:13:53;4.00;;;3.60;;
5499;SDS011;2772;42.700;23.304;2022-12-01T08:16:20;7.07;;;4.30;;
5499;SDS011;2772;42.700;23.304;2022-12-01T08:18:50;4.10;;;3.70;;
5499;SDS011;2772;42.700;23.304;2022-12-01T08:21:17;6.10;;;3.73;;
5499;SDS011;2772;42.700;23.304;2022-12-01T08:23:46;4.77;;;3.97;;
5499;SDS011;2772;42.700;23.304;2022-12-01T08:26:14;4.00;;;3.60;;
5499;SDS011;2772;42.700;23.304;2022-12-01T08:28:42;3.93;;;3.53;;
5499;SDS011;2772;42.700;23.304;2022-12-01T08:31:10;3.27;;;3.07;;
5499;SDS011;2772;42.700;23.304;2022-12-01T08:33:41;3.27;;;2.97;;
5499;SDS011;2772;42.700;23.304;2022-12-01T08:36:09;7.27;;;3.40;;
5499;SDS011;2772;42.700;23.304;2022-12-01T08:38:36;4.70;;;3.50;;
5499;SDS011;2772;42.700;23.304;2022-12-01T08:41:03;4.33;;;3.30;;
5499;SDS011;2772;42.700;23.304;2022-12-01T08:43:31;7.13;;;4.30;;
5499;SDS011;2772;42.700;23.304;2022-12-01T08:45:58;6.90;;;4.20;;
5499;SDS011;2772;42.700;23.304;2022-12-01T08:48:26;7.57;;;4.50;;
5499;SDS011;2772;42.700;23.304;2022-12-01T08:50:59;7.07;;;5.20;;
5499;SDS011;2772;42.700;23.304;2022-12-01T08:53:29;4.97;;;3.87;;
5499;SDS011;2772;42.700;23.304;2022-12-01T08:55:57;4.50;;;4.20;;
5499;SDS011;2772;42.700;23.304;2022-12-01T08:58:25;6.03;;;4.63;;
5499;SDS011;2772;42.700;23.304;2022-12-01T09:00:52;6.67;;;3.63;;
5499;SDS011;2772;42.700;23.304;2022-12-01T09:03:19;4.10;;;3.80;;
5499;SDS011;2772;42.700;23.304;2022-12-01T09:05:46;3.97;;;3.67;;
5499;SDS011;2772;42.700;23.304;2022-12-01T09:08:12;4.20;;;3.83;;
5499;SDS011;2772;42.700;23.304;2022-12-01T09:10:59;6.90;;;4.27;;
5499;SDS011;2772;42.700;23.304;2022-12-01T09:13:27;6.37;;;4.90;;
5499;SDS011;2772;42.700;23.304;2022-12-01T09:15:55;10.23;;;6.07;;
5499;SDS011;2772;42.700;23.304;2022-12-01T09:18:22;6.50;;;5.07;;
5499;SDS011;2772;42.700;23.304;2022-12-01T09:20:49;6.77;;;4.70;;
5499;SDS011;2772;42.700;23.304;2022-12-01T09:23:16;6.10;;;4.80;;
5499;SDS011;2772;42.700;23.304;2022-12-01T09:25:43;7.17;;;4.93;;
5499;SDS011;2772;42.700;23.304;2022-12-01T09:28:11;5.10;;;4.33;;
5499;SDS011;2772;42.700;23.304;2022-12-01T09:30:38;6.17;;;4.67;;
5499;SDS011;2772;42.700;23.304;2022-12-01T09:33:05;5.87;;;5.27;;
5499;SDS011;2772;42.700;23.304;2022-12-01T09:35:32;6.27;;;5.30;;
5499;SDS011;2772;42.700;23.304;2022-12-01T09:37:59;7.37;;;6.17;;
5499;SDS011;2772;42.700;23.304;2022-12-01T09:40:27;10.00;;;5.60;;
5499;SDS011;2772;42.700;23.304;2022-12-01T09:42:58;7.07;;;6.20;;
5499;SDS011;2772;42.700;23.304;2022-12-01T09:45:30;8.63;;;6.67;;
5499;SDS011;2772;42.700;23.304;2022-12-01T09:48:00;9.60;;;5.77;;
5499;SDS011;2772;42.700;23.304;2022-12-01T09:50:29;6.90;;;5.57;;
5499;SDS011;2772;42.700;23.304;2022-12-01T09:52:59;6.80;;;4.60;;
5499;SDS011;2772;42.700;23.304;2022-12-01T09:55:32;5.17;;;4.70;;
5499;SDS011;2772;42.700;23.304;2022-12-01T09:58:01;9.00;;;5.30;;
5499;SDS011;2772;42.700;23.304;2022-12-01T10:00:31;6.13;;;5.33;;
5499;SDS011;2772;42.700;23.304;2022-12-01T10:03:14;7.00;;;5.50;;
5499;SDS011;2772;42.700;23.304;2022-12-01T10:05:52;6.30;;;5.30;;
5499;SDS011;2772;42.700;23.304;2022-12-01T10:08:21;3.47;;;3.17;;
5499;SDS011;2772;42.700;23.304;2022-12-01T10:10:51;3.53;;;3.00;;
5499;SDS011;2772;42.700;23.304;2022-12-01T10:13:23;3.50;;;3.20;;
5499;SDS011;2772;42.700;23.304;2022-12-01T10:15:55;4.13;;;3.37;;
5499;SDS011;2772;42.700;23.304;2022-12-01T10:18:32;3.80;;;2.77;;
5499;SDS011;2772;42.700;23.304;2022-12-01T10:21:08;5.33;;;3.40;;
5499;SDS011;2772;42.700;23.304;2022-12-01T10:23:43;2.53;;;2.33;;
5499;SDS011;2772;42.700;23.304;2022-12-01T10:26:22;2.73;;;2.53;;
5499;SDS011;2772;42.700;23.304;2022-12-01T10:28:59;3.97;;;3.00;;
5499;SDS011;2772;42.700;23.304;2022-12-01T10:31:46;2.80;;;2.40;;
5499;SDS011;2772;42.700;23.304;2022-12-01T10:34:20;2.00;;;1.80;;
5499;SDS011;2772;42.700;23.304;2022-12-01T10:36:48;2.10;;;1.90;;
5499;SDS011;2772;42.700;23.304;2022-12-01T10:39:16;4.07;;;1.70;;
5499;SDS011;2772;42.700;23.304;2022-12-01T10:41:49;1.67;;;1.43;;
5499;SDS011;2772;42.700;23.304;2022-12-01T10:44:17;2.07;;;1.73;;
5499;SDS011;2772;42.700;23.304;2022-12-01T10:46:48;3.03;;;2.33;;
5499;SDS011;2772;42.700;23.304;2022-12-01T10:49:17;2.60;;;2.40;;
5499;SDS011;2772;42.700;23.304;2022-12-01T10:51:52;2.87;;;2.67;;
5499;SDS011;2772;42.700;23.304;2022-12-01T10:54:20;2.23;;;2.13;;
5499;SDS011;2772;42.700;23.304;2022-12-01T10:56:51;2.60;;;2.40;;
5499;SDS011;2772;42.700;23.304;2022-12-01T10:59:23;3.13;;;2.83;;
5499;SDS011;2772;42.700;23.304;2022-12-01T11:01:54;2.83;;;2.50;;
5499;SDS011;2772;42.700;23.304;2022-12-01T11:04:27;3.00;;;2.80;;
5499;SDS011;2772;42.700;23.304;2022-12-01T11:07:17;2.90;;;2.70;;
5499;SDS011;2772;42.700;23.304;2022-12-01T11:09:47;2.17;;;2.07;;
5499;SDS011;2772;42.700;23.304;2022-12-01T11:12:26;2.40;;;2.20;;
5499;SDS011;2772;42.700;23.304;2022-12-01T11:14:54;2.60;;;1.73;;
5499;SDS011;2772;42.700;23.304;2022-12-01T11:17:26;2.97;;;1.77;;
5499;SDS011;2772;42.700;23.304;2022-12-01T11:19:55;1.90;;;1.80;;
5499;SDS011;2772;42.700;23.304;2022-12-01T11:22:23;2.20;;;1.70;;
5499;SDS011;2772;42.700;23.304;2022-12-01T11:24:55;8.00;;;5.53;;
5499;SDS011;2772;42.700;23.304;2022-12-01T11:27:25;2.00;;;1.90;;
5499;SDS011;2772;42.700;23.304;2022-12-01T11:29:55;2.17;;;2.03;;
5499;SDS011;2772;42.700;23.304;2022-12-01T11:32:26;10.30;;;4.10;;
5499;SDS011;2772;42.700;23.304;2022-12-01T11:34:56;3.17;;;2.07;;
5499;SDS011;2772;42.700;23.304;2022-12-01T11:37:26;1.87;;;1.77;;
5499;SDS011;2772;42.700;23.304;2022-12-01T11:40:03;3.07;;;2.30;;
5499;SDS011;2772;42.700;23.304;2022-12-01T11:42:32;2.20;;;2.00;;
5499;SDS011;2772;42.700;23.304;2022-12-01T11:45:16;5.80;;;4.10;;
5499;SDS011;2772;42.700;23.304;2022-12-01T11:48:01;4.90;;;2.07;;
5499;SDS011;2772;42.700;23.304;2022-12-01T11:50:32;3.67;;;1.90;;
5499;SDS011;2772;42.700;23.304;2022-12-01T11:53:00;3.50;;;2.20;;
5499;SDS011;2772;42.700;23.304;2022-12-01T11:55:27;2.37;;;1.87;;
5499;SDS011;2772;42.700;23.304;2022-12-01T11:57:56;3.07;;;2.60;;
5499;SDS011;2772;42.700;23.304;2022-12-01T12:00:27;3.43;;;1.87;;
5499;SDS011;2772;42.700;23.304;2022-12-01T12:03:04;2.23;;;1.83;;
5499;SDS011;2772;42.700;23.304;2022-12-01T12:05:48;2.70;;;2.50;;
5499;SDS011;2772;42.700;23.304;2022-12-01T12:08:32;3.30;;;3.03;;
5499;SDS011;2772;42.700;23.304;2022-12-01T12:11:08;6.40;;;2.60;;
5499;SDS011;2772;42.700;23.304;2022-12-01T12:13:46;4.03;;;2.60;;
5499;SDS011;2772;42.700;23.304;2022-12-01T12:16:31;2.60;;;2.50;;
5499;SDS011;2772;42.700;23.304;2022-12-01T12:19:16;3.60;;;3.30;;
5499;SDS011;2772;42.700;23.304;2022-12-01T12:21:58;5.43;;;4.23;;
5499;SDS011;2772;42.700;23.304;2022-12-01T12:24:45;3.20;;;1.97;;
5499;SDS011;2772;42.700;23.304;2022-12-01T12:27:23;2.10;;;2.00;;
5499;SDS011;2772;42.700;23.304;2022-12-01T12:30:00;2.43;;;1.87;;
5499;SDS011;2772;42.700;23.304;2022-12-01T12:32:41;2.20;;;2.00;;
5499;SDS011;2772;42.700;23.304;2022-12-01T12:35:35;4.70;;;1.97;;
5499;SDS011;2772;42.700;23.304;2022-12-01T12:38:16;2.43;;;2.23;;
5499;SDS011;2772;42.700;23.304;2022-12-01T12:40:59;2.00;;;1.90;;
5499;SDS011;2772;42.700;23.304;2022-12-01T12:43:37;3.60;;;2.53;;
5499;SDS011;2772;42.700;23.304;2022-12-01T12:46:15;7.00;;;3.03;;
5499;SDS011;2772;42.700;23.304;2022-12-01T12:48:53;3.00;;;2.70;;
5499;SDS011;2772;42.700;23.304;2022-12-01T12:51:38;3.40;;;3.10;;
5499;SDS011;2772;42.700;23.304;2022-12-01T12:54:12;3.80;;;2.53;;
5499;SDS011;2772;42.700;23.304;2022-12-01T12:56:48;2.43;;;2.33;;
5499;SDS011;2772;42.700;23.304;2022-12-01T12:59:22;2.60;;;2.50;;
5499;SDS011;2772;42.700;23.304;2022-12-01T13:01:58;2.67;;;2.20;;
5499;SDS011;2772;42.700;23.304;2022-12-01T13:04:31;3.20;;;2.00;;
5499;SDS011;2772;42.700;23.304;2022-12-01T13:07:07;2.60;;;2.33;;
5499;SDS011;2772;42.700;23.304;2022-12-01T13:09:41;2.43;;;2.23;;
5499;SDS011;2772;42.700;23.304;2022-12-01T13:12:14;2.30;;;2.10;;
5499;SDS011;2772;42.700;23.304;2022-12-01T13:14:47;2.30;;;1.83;;
5499;SDS011;2772;42.700;23.304;2022-12-01T13:17:18;3.73;;;3.37;;
5499;SDS011;2772;42.700;23.304;2022-12-01T13:19:48;2.90;;;2.67;;
5499;SDS011;2772;42.700;23.304;2022-12-01T13:22:17;5.20;;;2.60;;
5499;SDS011;2772;42.700;23.304;2022-12-01T13:24:49;3.00;;;2.53;;
5499;SDS011;2772;42.700;23.304;2022-12-01T13:27:17;3.40;;;2.53;;
5499;SDS011;2772;42.700;23.304;2022-12-01T13:29:47;6.30;;;2.27;;
5499;SDS011;2772;42.700;23.304;2022-12-01T13:32:24;2.70;;;2.50;;
5499;SDS011;2772;42.700;23.304;2022-12-01T13:34:54;9.43;;;5.10;;
5499;SDS011;2772;42.700;23.304;2022-12-01T13:37:25;9.63;;;6.80;;
5499;SDS011;2772;42.700;23.304;2022-12-01T13:39:54;24.87;;;15.03;;
5499;SDS011;2772;42.700;23.304;2022-12-01T13:42:31;25.13;;;15.03;;
5499;SDS011;2772;42.700;23.304;2022-12-01T13:44:59;18.87;;;13.60;;
5499;SDS011;2772;42.700;23.304;2022-12-01T13:47:36;22.47;;;13.53;;
5499;SDS011;2772;42.700;23.304;2022-12-01T13:53:11;10.23;;;6.23;;
5499;SDS011;2772;42.700;23.304;2022-12-01T13:55:54;7.83;;;5.10;;
5499;SDS011;2772;42.700;23.304;2022-12-01T13:58:43;6.70;;;5.23;;
5499;SDS011;2772;42.700;23.304;2022-12-01T14:04:23;3.20;;;3.00;;
5499;SDS011;2772;42.700;23.304;2022-12-01T14:12:55;3.20;;;2.90;;
5499;SDS011;2772;42.700;23.304;2022-12-01T14:15:36;3.47;;;3.07;;
5499;SDS011;2772;42.700;23.304;2022-12-01T14:18:17;2.30;;;1.97;;
5499;SDS011;2772;42.700;23.304;2022-12-01T14:20:51;4.00;;;3.20;;
5499;SDS011;2772;42.700;23.304;2022-12-01T14:23:21;2.20;;;2.10;;
5499;SDS011;2772;42.700;23.304;2022-12-01T14:25:58;3.57;;;2.70;;
5499;SDS011;2772;42.700;23.304;2022-12-01T14:35:00;1.83;;;1.60;;
5499;SDS011;2772;42.700;23.304;2022-12-01T14:37:38;2.30;;;2.10;;
5499;SDS011;2772;42.700;23.304;2022-12-01T14:40:14;3.60;;;2.50;;
5499;SDS011;2772;42.700;23.304;2022-12-01T14:42:51;3.20;;;2.50;;
5499;SDS011;2772;42.700;23.304;2022-12-01T14:45:39;4.57;;;3.43;;
5499;SDS011;2772;42.700;23.304;2022-12-01T14:48:13;2.00;;;1.90;;
5499;SDS011;2772;42.700;23.304;2022-12-01T14:50:45;2.90;;;2.10;;
5499;SDS011;2772;42.700;23.304;2022-12-01T14:53:16;2.13;;;2.03;;
5499;SDS011;2772;42.700;23.304;2022-12-01T14:55:49;2.40;;;2.30;;
5499;SDS011;2772;42.700;23.304;2022-12-01T14:58:22;3.27;;;2.50;;
5499;SDS011;2772;42.700;23.304;2022-12-01T15:00:54;3.63;;;2.90;;
5499;SDS011;2772;42.700;23.304;2022-12-01T15:03:25;4.37;;;3.13;;
5499;SDS011;2772;42.700;23.304;2022-12-01T15:05:55;3.90;;;2.80;;
5499;SDS011;2772;42.700;23.304;2022-12-01T15:08:22;3.80;;;3.47;;
5499;SDS011;2772;42.700;23.304;2022-12-01T15:10:53;3.30;;;2.53;;
5499;SDS011;2772;42.700;23.304;2022-12-01T15:13:23;3.40;;;3.10;;
5499;SDS011;2772;42.700;23.304;2022-12-01T15:15:53;3.73;;;3.43;;
5499;SDS011;2772;42.700;23.304;2022-12-01T15:18:22;3.87;;;3.57;;
5499;SDS011;2772;42.700;23.304;2022-12-01T15:20:54;5.00;;;4.27;;
5499;SDS011;2772;42.700;23.304;2022-12-01T15:23:24;6.03;;;4.43;;
5499;SDS011;2772;42.700;23.304;2022-12-01T15:25:51;7.30;;;4.33;;
5499;SDS011;2772;42.700;23.304;2022-12-01T15:28:19;9.00;;;4.00;;
5499;SDS011;2772;42.700;23.304;2022-12-01T15:30:49;6.20;;;4.20;;
5499;SDS011;2772;42.700;23.304;2022-12-01T15:33:19;6.60;;;4.13;;
5499;SDS011;2772;42.700;23.304;2022-12-01T15:35:49;10.17;;;4.67;;
5499;SDS011;2772;42.700;23.304;2022-12-01T15:38:17;4.27;;;3.63;;
5499;SDS011;2772;42.700;23.304;2022-12-01T15:40:47;5.00;;;4.40;;
5499;SDS011;2772;42.700;23.304;2022-12-01T15:43:16;6.93;;;4.33;;